Date,TemperatureHighF,TemperatureAvgF,TemperatureLowF,DewpointHighF,DewpointAvgF,DewpointLowF,HumidityHigh,HumidityAvg,HumidityLow,PressureMaxIn,PressureMinIn,WindSpeedMaxMPH,WindSpeedAvgMPH,GustSpeedMaxMPH,PrecipitationSumIn
2013-2-1,17.1,13.8,10.0,7.3,2.6,-0.4,72,61,53,29.38,29.09,20,8,20,0.00
2013-2-2,33.3,14.4,9.5,11.7,-0.5,-8.0,64,52,33,29.32,29.26,18,4,18,0.00
2013-2-3,21.2,13.3,8.6,10.7,-2.0,-8.8,83,50,44,29.26,29.03,19,6,19,0.00
2013-2-4,24.1,15.5,10.2,6.8,0.4,-5.1,64,51,46,29.23,29.12,19,4,19,0.00
2013-2-5,23.4,16.2,8.1,17.8,3.6,-7.3,82,58,46,29.23,28.88,20,6,20,0.00
2013-2-6,32.2,20.9,13.6,18.6,7.4,-0.3,87,57,37,29.47,29.23,15,4,15,0.00
2013-2-7,34.2,23.5,19.9,25.7,20.9,-7.3,100,90,82,29.44,29.32,13,4,13,0.00
2013-2-8,39.2,22.2,10.8,17.7,10.5,0.3,88,63,39,29.65,29.35,12,3,12,0.04
2013-2-9,38.1,20.1,7.5,13.8,5.0,-3.1,75,53,34,29.68,29.44,13,3,13,0.00
2013-2-10,39.4,30.2,22.6,35.7,17.6,10.0,98,61,41,29.47,28.73,18,6,19,0.00
2013-2-11,40.1,33.8,25.9,38.7,30.9,14.4,98,89,60,29.03,28.55,30,8,30,0.17
2013-2-12,27.5,25.8,24.8,19.1,15.9,12.3,75,66,54,29.20,29.00,24,9,26,0.00
2013-2-13,40.1,31.9,26.1,26.7,23.7,19.0,85,72,52,29.06,28.88,16,5,16,0.00
2013-2-14,38.5,32.2,23.5,34.1,29.3,17.4,98,89,77,29.06,28.82,17,3,17,0.08
2013-2-15,22.6,18.5,16.0,7.0,2.0,-1.6,53,48,43,29.38,29.06,15,5,15,32.72
2013-2-16,41.4,17.7,7.5,14.8,0.8,-9.4,77,48,29,29.38,29.29,10,2,10,0.04
2013-2-17,28.9,15.6,7.0,8.4,-0.9,-9.9,58,48,40,29.44,29.29,12,3,14,0.00
2013-2-18,44.6,29.8,16.7,35.0,13.3,2.5,97,51,34,29.32,28.61,17,6,18,0.17
2013-2-19,39.7,26.5,14.2,39.2,23.9,9.1,98,90,58,29.06,28.35,37,14,39,0.08
2013-2-20,19.2,15.0,11.3,11.2,6.2,-1.7,83,69,46,29.50,29.06,24,6,24,0.00
2013-2-21,34.7,19.2,12.6,12.7,6.3,1.8,84,59,32,29.68,29.47,10,3,11,0.00
2013-2-22,32.5,25.8,16.9,25.2,21.0,12.9,93,82,73,29.50,28.94,14,4,18,0.00
2013-2-23,36.3,28.5,25.7,28.6,23.6,19.1,94,82,54,29.00,28.88,14,3,14,0.00
2013-2-24,43.7,30.2,21.4,28.0,24.1,19.4,95,80,49,29.32,28.94,10,2,10,0.08
2013-2-25,40.1,32.2,28.6,26.1,21.1,16.2,85,65,41,29.41,29.29,10,1,10,0.00
2013-2-26,39.2,31.3,24.4,23.0,19.4,14.7,72,61,45,29.44,29.03,20,5,22,0.04
2013-2-27,36.5,32.4,30.2,31.5,27.9,0.0,100,85,72,29.03,28.91,18,5,18,0.00
2013-2-28,34.0,29.8,22.1,30.9,20.5,7.9,97,70,51,29.35,28.94,10,4,10,0.00